Michel Dsr — FLTE — position and weather

sailwx.info

Track history (hours):
 
Tides and Currents Weather Stations Pressure Air Temp Water Temp Dewpoint Dewpoint Depression Visibility Wind Speed Wind Dir Waves Ship Positions

Michel Dsr

Last reported at 2015-Jul-02 20:33 UTC. Time now 2015-Jul-02 21:29 UTC.
Position N 47°28' W 003°12'.

Length 80 m; draft 4.5 m.

Type: Dredging. MMSI: 228344700.

Date/timePositionNaut miles runAvg speedWind from/ knotsBaromVisibWave heightAir tempDewpointWater temp
2015-Jul-02 20:33N 47°28' W 003°12'1010.2
2015-Jul-02 19:33N 47°37' W 003°19'7 7.1
2015-Jul-02 18:33N 47°45' W 003°20'0 0.4
2015-Jul-02 17:33N 47°45' W 003°19'0 0.0
2015-Jul-02 16:33N 47°45' W 003°19'1 1.4
2015-Jul-02 15:33N 47°44' W 003°21'0 0.3
2015-Jul-02 14:33N 47°44' W 003°21'0 0.0
2015-Jul-02 13:33N 47°44' W 003°21'0 0.0
2015-Jul-02 12:33N 47°44' W 003°21'0 0.0
2015-Jul-02 11:33N 47°44' W 003°21'0 0.0
2015-Jul-02 10:33N 47°44' W 003°21'0 0.0
2015-Jul-02 09:33N 47°44' W 003°21'0 0.0
2015-Jul-02 08:33N 47°44' W 003°21'0 0.0
2015-Jul-02 07:33N 47°44' W 003°21'0 0.0
2015-Jul-02 06:33N 47°44' W 003°21'0 0.0
2015-Jul-02 05:33N 47°44' W 003°21'0 0.0
2015-Jul-02 04:33N 47°44' W 003°21'0 0.0
2015-Jul-02 03:33N 47°44' W 003°21'0 0.0
2015-Jul-02 02:33N 47°44' W 003°21'0 0.0
2015-Jul-02 01:33N 47°44' W 003°21'0 0.0
2015-Jul-02 00:33N 47°44' W 003°21'0 0.0
2015-Jul-01 23:33N 47°44' W 003°21'0 0.0
2015-Jul-01 22:33N 47°44' W 003°21'0 0.0
2015-Jul-01 21:33N 47°44' W 003°21'6 6.2
2015-Jul-01 20:33N 47°38' W 003°21'1313.0
2015-Jul-01 19:34N 47°27' W 003°10'1313.0
2015-Jul-01 18:34N 47°17' W 002°58'1312.6
2015-Jul-01 17:34N 47°11' W 002°41'1212.3
2015-Jul-01 16:34N 47°06' W 002°25'3 2.5
2015-Jul-01 15:34N 47°05' W 002°22'0 0.1
2015-Jul-01 14:33N 47°05' W 002°22'0 0.4
2015-Jul-01 13:34N 47°05' W 002°21'0 0.2
2015-Jul-01 12:33N 47°05' W 002°21'0 0.2
2015-Jul-01 11:33N 47°05' W 002°22'14 6.9
2015-Jul-01 09:33N 47°11' W 002°40'1110.9
2015-Jul-01 08:33N 47°16' W 002°54'1111.3
2015-Jul-01 07:34N 47°23' W 003°07'1111.3
2015-Jul-01 06:33N 47°32' W 003°16'1010.5
2015-Jul-01 05:34N 47°42' W 003°23'4 4.0
2015-Jul-01 04:33N 47°45' W 003°19'0 0.0
2015-Jul-01 03:33N 47°45' W 003°19'0 0.0
2015-Jul-01 02:33N 47°45' W 003°19'2 1.5
2015-Jul-01 01:34N 47°44' W 003°21'0 0.1
2015-Jul-01 00:33N 47°44' W 003°21'0 0.0
2015-Jun-30 23:33N 47°44' W 003°21'0 0.0
2015-Jun-30 22:33N 47°44' W 003°21'0 0.0
2015-Jun-30 21:33N 47°44' W 003°21'0 0.0
2015-Jun-30 20:33N 47°44' W 003°21'0 0.0
2015-Jun-30 19:33N 47°44' W 003°21'0 0.0
2015-Jun-30 18:33N 47°44' W 003°21'0 0.0
2015-Jun-30 17:33N 47°44' W 003°21'0 0.0
2015-Jun-30 16:33N 47°44' W 003°21'0 0.0
2015-Jun-30 15:33N 47°44' W 003°21'0 0.0
2015-Jun-30 14:33N 47°44' W 003°21'0 0.0
2015-Jun-30 13:33N 47°44' W 003°21'0 0.0
2015-Jun-30 12:33N 47°44' W 003°21'0 0.0
2015-Jun-30 11:33N 47°44' W 003°21'0 0.0
2015-Jun-30 10:33N 47°44' W 003°21'0 0.0
2015-Jun-30 09:33N 47°44' W 003°21'0 0.0
2015-Jun-30 08:33N 47°44' W 003°21'0 0.0
2015-Jun-30 07:33N 47°44' W 003°21'0 0.0
2015-Jun-30 06:33N 47°44' W 003°21'1 1.4
2015-Jun-30 05:33N 47°43' W 003°22'9 8.5
2015-Jun-30 04:33N 47°35' W 003°18'1110.7
2015-Jun-30 03:33N 47°26' W 003°09'1010.2
2015-Jun-30 02:33N 47°18' W 002°60'1110.8
2015-Jun-30 01:33N 47°10' W 002°49'1110.6
2015-Jun-30 00:33N 47°02' W 002°38'1110.5
2015-Jun-29 23:33N 46°54' W 002°28'1010.4
2015-Jun-29 22:33N 46°47' W 002°17'1110.6
2015-Jun-29 21:33N 46°38' W 002°08'1010.3
2015-Jun-29 20:33N 46°30' W 001°59'1010.1
2015-Jun-29 19:33N 46°22' W 001°51'1010.0
2015-Jun-29 18:33N 46°13' W 001°43'9 9.4
2015-Jun-29 17:33N 46°06' W 001°35'1 1.4
2015-Jun-29 16:33N 46°05' W 001°34'0 0.1
2015-Jun-29 15:33N 46°05' W 001°34'2 1.8
2015-Jun-29 14:33N 46°05' W 001°31'1111.1
2015-Jun-29 13:33N 46°07' W 001°16'3 3.0
2015-Jun-29 12:33N 46°09' W 001°13'0 0.0
2015-Jun-29 11:33N 46°09' W 001°13'0 0.0
2015-Jun-29 10:33N 46°09' W 001°13'0 0.0
2015-Jun-29 09:33N 46°09' W 001°13'0 0.0
2015-Jun-29 08:34N 46°09' W 001°13'0 0.0
2015-Jun-29 07:33N 46°09' W 001°13'0 0.0
2015-Jun-29 06:33N 46°09' W 001°13'0 0.0
2015-Jun-29 05:34N 46°09' W 001°13'0 0.0
2015-Jun-29 04:34N 46°09' W 001°13'0 0.0
2015-Jun-29 03:34N 46°09' W 001°13'0 0.0
2015-Jun-29 02:33N 46°09' W 001°13'0 0.0
2015-Jun-29 01:34N 46°09' W 001°13'0 0.0
2015-Jun-29 00:34N 46°09' W 001°13'0 0.0
2015-Jun-28 23:34N 46°09' W 001°13'0 0.0
2015-Jun-28 22:34N 46°09' W 001°13'0 0.0
2015-Jun-28 21:33N 46°09' W 001°13'0 0.0
2015-Jun-28 20:34N 46°09' W 001°13'0 0.0
2015-Jun-28 19:33N 46°09' W 001°13'0 0.0
2015-Jun-28 18:33N 46°09' W 001°13'0 0.0
2015-Jun-28 17:33N 46°09' W 001°13'0 0.0
2015-Jun-28 16:33N 46°09' W 001°13'0 0.0
2015-Jun-28 15:33N 46°09' W 001°13'0 0.0
2015-Jun-28 14:34N 46°09' W 001°13'0 0.0
2015-Jun-28 13:34N 46°09' W 001°13'0 0.0
2015-Jun-28 12:33N 46°09' W 001°13'0 0.0
2015-Jun-28 11:33N 46°09' W 001°13'0 0.0
2015-Jun-28 10:33N 46°09' W 001°13'0 0.0
2015-Jun-28 09:33N 46°09' W 001°13'0 0.0
2015-Jun-28 08:33N 46°09' W 001°13'0 0.0
2015-Jun-28 07:33N 46°09' W 001°13'0 0.0
2015-Jun-28 06:33N 46°09' W 001°13'0 0.0
2015-Jun-28 05:34N 46°09' W 001°13'0 0.0
2015-Jun-28 04:33N 46°09' W 001°13'0 0.0
2015-Jun-28 03:33N 46°09' W 001°13'0 0.0
2015-Jun-28 02:33N 46°09' W 001°13'0 0.0
2015-Jun-28 01:33N 46°09' W 001°13'0 0.0
2015-Jun-28 00:33N 46°09' W 001°13'0 0.0
2015-Jun-27 23:33N 46°09' W 001°13'0 0.0
2015-Jun-27 22:33N 46°09' W 001°13'0 0.0
2015-Jun-27 21:33N 46°09' W 001°13'0 0.0
2015-Jun-27 20:33N 46°09' W 001°13'0 0.0
2015-Jun-27 19:33N 46°09' W 001°13'0 0.0
2015-Jun-27 18:33N 46°09' W 001°13'0 0.0
2015-Jun-27 17:33N 46°09' W 001°13'0 0.0
2015-Jun-27 16:33N 46°09' W 001°13'0 0.0
2015-Jun-27 15:33N 46°09' W 001°13'0 0.0
2015-Jun-27 14:33N 46°09' W 001°13'0 0.0
2015-Jun-27 13:33N 46°09' W 001°13'0 0.0
2015-Jun-27 12:33N 46°09' W 001°13'1 0.8
2015-Jun-27 11:33N 46°09' W 001°14'10 9.6
2015-Jun-27 10:33N 46°05' W 001°27'5 5.2
2015-Jun-27 09:33N 46°05' W 001°35'0 0.2
2015-Jun-27 08:33N 46°05' W 001°34'0 0.3
2015-Jun-27 07:32N 46°05' W 001°34'9 9.5
2015-Jun-27 06:33N 46°06' W 001°21'6 6.1
2015-Jun-27 05:34N 46°09' W 001°13'0 0.0
2015-Jun-27 04:34N 46°09' W 001°13'0 0.0
2015-Jun-27 03:34N 46°09' W 001°13'0 0.0
2015-Jun-27 02:33N 46°09' W 001°13'0 0.0
2015-Jun-27 01:33N 46°09' W 001°13'0 0.0
2015-Jun-27 00:33N 46°09' W 001°13'0 0.0
2015-Jun-26 23:33N 46°09' W 001°13'2 1.7
2015-Jun-26 22:33N 46°08' W 001°15'9 9.0
2015-Jun-26 21:33N 46°07' W 001°28'1110.5
2015-Jun-26 20:33N 46°13' W 001°41'1110.7
2015-Jun-26 19:34N 46°21' W 001°51'1111.1
2015-Jun-26 18:33N 46°30' W 001°60'1110.9
2015-Jun-26 17:33N 46°39' W 002°09'1010.4
2015-Jun-26 16:33N 46°47' W 002°19'1010.4
2015-Jun-26 15:33N 46°55' W 002°29'10 9.9
2015-Jun-26 14:33N 47°04' W 002°23'2 1.7
2015-Jun-26 13:33N 47°05' W 002°21'1 0.8
2015-Jun-26 12:33N 47°06' W 002°21'10 9.8
2015-Jun-26 11:33N 47°15' W 002°14'6 6.1
2015-Jun-26 10:33N 47°18' W 002°07'0 0.0
2015-Jun-26 09:33N 47°18' W 002°07'0 0.0
2015-Jun-26 08:33N 47°18' W 002°07'0 0.0
2015-Jun-26 07:33N 47°18' W 002°07'0 0.0
2015-Jun-26 06:33N 47°18' W 002°07'0 0.0
2015-Jun-26 05:33N 47°18' W 002°07'0 0.0
2015-Jun-26 04:33N 47°18' W 002°07'0 0.0
2015-Jun-26 03:33N 47°18' W 002°07'0 0.0
2015-Jun-26 02:33N 47°18' W 002°07'0 0.0
2015-Jun-26 01:33N 47°18' W 002°07'0 0.0
2015-Jun-26 00:33N 47°18' W 002°07'0 0.0
2015-Jun-25 23:33N 47°18' W 002°07'0 0.0
2015-Jun-25 22:33N 47°18' W 002°07'0 0.0
2015-Jun-25 21:33N 47°18' W 002°07'0 0.0
2015-Jun-25 20:33N 47°18' W 002°07'0 0.0
2015-Jun-25 19:33N 47°18' W 002°07'0 0.0
2015-Jun-25 18:33N 47°18' W 002°07'0 0.0
2015-Jun-25 17:33N 47°18' W 002°07'0 0.0
2015-Jun-25 16:33N 47°18' W 002°07'0 0.0
2015-Jun-25 15:33N 47°18' W 002°07'0 0.0
2015-Jun-25 14:33N 47°18' W 002°07'0 0.0
2015-Jun-25 13:26N 47°18' W 002°07'0 0.0
2015-Jun-25 12:25N 47°18' W 002°07'0 0.0
2015-Jun-25 11:29N 47°18' W 002°07'0 0.0
2015-Jun-25 10:33N 47°18' W 002°07'0 0.0
2015-Jun-25 09:33N 47°18' W 002°07'5 4.8
2015-Jun-25 08:33N 47°15' W 002°13'1212.0
2015-Jun-25 07:33N 47°05' W 002°22'0 0.2
2015-Jun-25 06:33N 47°05' W 002°21'0 0.2
2015-Jun-25 05:33N 47°05' W 002°21'0 0.3
2015-Jun-25 04:33N 47°05' W 002°22'9 9.4
2015-Jun-25 03:33N 47°14' W 002°16'8 7.4
2015-Jun-25 02:32N 47°18' W 002°07'0 0.0
2015-Jun-25 01:32N 47°18' W 002°07'0 0.0
2015-Jun-25 00:32N 47°18' W 002°07'0 0.0
2015-Jun-24 23:33N 47°18' W 002°07'0 0.0
2015-Jun-24 22:33N 47°18' W 002°07'0 0.0
2015-Jun-24 21:32N 47°18' W 002°07'0 0.0
2015-Jun-24 20:32N 47°18' W 002°07'0 0.0
2015-Jun-24 19:32N 47°18' W 002°07'0 0.0
2015-Jun-24 18:29N 47°18' W 002°07'0 0.0
2015-Jun-24 07:32N 47°18' W 002°07'0 0.0
2015-Jun-24 06:33N 47°18' W 002°07'0 0.0
2015-Jun-24 05:33N 47°18' W 002°07'0 0.0
2015-Jun-24 04:33N 47°18' W 002°07'0 0.0
2015-Jun-24 03:33N 47°18' W 002°07'0 0.0
2015-Jun-24 02:33N 47°18' W 002°07'0 0.0
2015-Jun-24 01:33N 47°18' W 002°07'0 0.0
2015-Jun-24 00:32N 47°18' W 002°07'0 0.0
2015-Jun-23 23:31N 47°18' W 002°07'0 0.0
2015-Jun-23 22:14N 47°18' W 002°07'0 0.0
2015-Jun-23 21:16N 47°18' W 002°07'0 0.0
2015-Jun-23 20:15N 47°18' W 002°07'  
Track history (hours):
 
Tides and Currents Weather Stations Pressure Air Temp Water Temp Dewpoint Dewpoint Depression Visibility Wind Speed Wind Dir Waves Ship Positions

Michel Dsr

Last reported at 2015-Jul-02 20:33 UTC. Time now 2015-Jul-02 21:29 UTC.
Position N 47°28' W 003°12'.

Length 80 m; draft 4.5 m.

Type: Dredging. MMSI: 228344700.

Date/timePositionNaut miles runAvg speedWind from/ knotsBaromVisibWave heightAir tempDewpointWater temp
2015-Jul-02 20:33N 47°28' W 003°12'1010.2
2015-Jul-02 19:33N 47°37' W 003°19'7 7.1
2015-Jul-02 18:33N 47°45' W 003°20'0 0.4
2015-Jul-02 17:33N 47°45' W 003°19'0 0.0
2015-Jul-02 16:33N 47°45' W 003°19'1 1.4
2015-Jul-02 15:33N 47°44' W 003°21'0 0.3
2015-Jul-02 14:33N 47°44' W 003°21'0 0.0
2015-Jul-02 13:33N 47°44' W 003°21'0 0.0
2015-Jul-02 12:33N 47°44' W 003°21'0 0.0
2015-Jul-02 11:33N 47°44' W 003°21'0 0.0
2015-Jul-02 10:33N 47°44' W 003°21'0 0.0
2015-Jul-02 09:33N 47°44' W 003°21'0 0.0
2015-Jul-02 08:33N 47°44' W 003°21'0 0.0
2015-Jul-02 07:33N 47°44' W 003°21'0 0.0
2015-Jul-02 06:33N 47°44' W 003°21'0 0.0
2015-Jul-02 05:33N 47°44' W 003°21'0 0.0
2015-Jul-02 04:33N 47°44' W 003°21'0 0.0
2015-Jul-02 03:33N 47°44' W 003°21'0 0.0
2015-Jul-02 02:33N 47°44' W 003°21'0 0.0
2015-Jul-02 01:33N 47°44' W 003°21'0 0.0
2015-Jul-02 00:33N 47°44' W 003°21'0 0.0
2015-Jul-01 23:33N 47°44' W 003°21'0 0.0
2015-Jul-01 22:33N 47°44' W 003°21'0 0.0
2015-Jul-01 21:33N 47°44' W 003°21'6 6.2
2015-Jul-01 20:33N 47°38' W 003°21'1313.0
2015-Jul-01 19:34N 47°27' W 003°10'1313.0
2015-Jul-01 18:34N 47°17' W 002°58'1312.6
2015-Jul-01 17:34N 47°11' W 002°41'1212.3
2015-Jul-01 16:34N 47°06' W 002°25'3 2.5
2015-Jul-01 15:34N 47°05' W 002°22'0 0.1
2015-Jul-01 14:33N 47°05' W 002°22'0 0.4
2015-Jul-01 13:34N 47°05' W 002°21'0 0.2
2015-Jul-01 12:33N 47°05' W 002°21'0 0.2
2015-Jul-01 11:33N 47°05' W 002°22'14 6.9
2015-Jul-01 09:33N 47°11' W 002°40'1110.9
2015-Jul-01 08:33N 47°16' W 002°54'1111.3
2015-Jul-01 07:34N 47°23' W 003°07'1111.3
2015-Jul-01 06:33N 47°32' W 003°16'1010.5
2015-Jul-01 05:34N 47°42' W 003°23'4 4.0
2015-Jul-01 04:33N 47°45' W 003°19'0 0.0
2015-Jul-01 03:33N 47°45' W 003°19'0 0.0
2015-Jul-01 02:33N 47°45' W 003°19'2 1.5
2015-Jul-01 01:34N 47°44' W 003°21'0 0.1
2015-Jul-01 00:33N 47°44' W 003°21'0 0.0
2015-Jun-30 23:33N 47°44' W 003°21'0 0.0
2015-Jun-30 22:33N 47°44' W 003°21'0 0.0
2015-Jun-30 21:33N 47°44' W 003°21'0 0.0
2015-Jun-30 20:33N 47°44' W 003°21'0 0.0
2015-Jun-30 19:33N 47°44' W 003°21'0 0.0
2015-Jun-30 18:33N 47°44' W 003°21'0 0.0
2015-Jun-30 17:33N 47°44' W 003°21'0 0.0
2015-Jun-30 16:33N 47°44' W 003°21'0 0.0
2015-Jun-30 15:33N 47°44' W 003°21'0 0.0
2015-Jun-30 14:33N 47°44' W 003°21'0 0.0
2015-Jun-30 13:33N 47°44' W 003°21'0 0.0
2015-Jun-30 12:33N 47°44' W 003°21'0 0.0
2015-Jun-30 11:33N 47°44' W 003°21'0 0.0
2015-Jun-30 10:33N 47°44' W 003°21'0 0.0
2015-Jun-30 09:33N 47°44' W 003°21'0 0.0
2015-Jun-30 08:33N 47°44' W 003°21'0 0.0
2015-Jun-30 07:33N 47°44' W 003°21'0 0.0
2015-Jun-30 06:33N 47°44' W 003°21'1 1.4
2015-Jun-30 05:33N 47°43' W 003°22'9 8.5
2015-Jun-30 04:33N 47°35' W 003°18'1110.7
2015-Jun-30 03:33N 47°26' W 003°09'1010.2
2015-Jun-30 02:33N 47°18' W 002°60'1110.8
2015-Jun-30 01:33N 47°10' W 002°49'1110.6
2015-Jun-30 00:33N 47°02' W 002°38'1110.5
2015-Jun-29 23:33N 46°54' W 002°28'1010.4
2015-Jun-29 22:33N 46°47' W 002°17'1110.6
2015-Jun-29 21:33N 46°38' W 002°08'1010.3
2015-Jun-29 20:33N 46°30' W 001°59'1010.1
2015-Jun-29 19:33N 46°22' W 001°51'1010.0
2015-Jun-29 18:33N 46°13' W 001°43'9 9.4
2015-Jun-29 17:33N 46°06' W 001°35'1 1.4
2015-Jun-29 16:33N 46°05' W 001°34'0 0.1
2015-Jun-29 15:33N 46°05' W 001°34'2 1.8
2015-Jun-29 14:33N 46°05' W 001°31'1111.1
2015-Jun-29 13:33N 46°07' W 001°16'3 3.0
2015-Jun-29 12:33N 46°09' W 001°13'0 0.0
2015-Jun-29 11:33N 46°09' W 001°13'0 0.0
2015-Jun-29 10:33N 46°09' W 001°13'0 0.0
2015-Jun-29 09:33N 46°09' W 001°13'0 0.0
2015-Jun-29 08:34N 46°09' W 001°13'0 0.0
2015-Jun-29 07:33N 46°09' W 001°13'0 0.0
2015-Jun-29 06:33N 46°09' W 001°13'0 0.0
2015-Jun-29 05:34N 46°09' W 001°13'0 0.0
2015-Jun-29 04:34N 46°09' W 001°13'0 0.0
2015-Jun-29 03:34N 46°09' W 001°13'0 0.0
2015-Jun-29 02:33N 46°09' W 001°13'0 0.0
2015-Jun-29 01:34N 46°09' W 001°13'0 0.0
2015-Jun-29 00:34N 46°09' W 001°13'0 0.0
2015-Jun-28 23:34N 46°09' W 001°13'0 0.0
2015-Jun-28 22:34N 46°09' W 001°13'0 0.0
2015-Jun-28 21:33N 46°09' W 001°13'0 0.0
2015-Jun-28 20:34N 46°09' W 001°13'0 0.0
2015-Jun-28 19:33N 46°09' W 001°13'0 0.0
2015-Jun-28 18:33N 46°09' W 001°13'0 0.0
2015-Jun-28 17:33N 46°09' W 001°13'0 0.0
2015-Jun-28 16:33N 46°09' W 001°13'0 0.0
2015-Jun-28 15:33N 46°09' W 001°13'0 0.0
2015-Jun-28 14:34N 46°09' W 001°13'0 0.0
2015-Jun-28 13:34N 46°09' W 001°13'0 0.0
2015-Jun-28 12:33N 46°09' W 001°13'0 0.0
2015-Jun-28 11:33N 46°09' W 001°13'0 0.0
2015-Jun-28 10:33N 46°09' W 001°13'0 0.0
2015-Jun-28 09:33N 46°09' W 001°13'0 0.0
2015-Jun-28 08:33N 46°09' W 001°13'0 0.0
2015-Jun-28 07:33N 46°09' W 001°13'0 0.0
2015-Jun-28 06:33N 46°09' W 001°13'0 0.0
2015-Jun-28 05:34N 46°09' W 001°13'0 0.0
2015-Jun-28 04:33N 46°09' W 001°13'0 0.0
2015-Jun-28 03:33N 46°09' W 001°13'0 0.0
2015-Jun-28 02:33N 46°09' W 001°13'0 0.0
2015-Jun-28 01:33N 46°09' W 001°13'0 0.0
2015-Jun-28 00:33N 46°09' W 001°13'0 0.0
2015-Jun-27 23:33N 46°09' W 001°13'0 0.0
2015-Jun-27 22:33N 46°09' W 001°13'0 0.0
2015-Jun-27 21:33N 46°09' W 001°13'0 0.0
2015-Jun-27 20:33N 46°09' W 001°13'0 0.0
2015-Jun-27 19:33N 46°09' W 001°13'0 0.0
2015-Jun-27 18:33N 46°09' W 001°13'0 0.0
2015-Jun-27 17:33N 46°09' W 001°13'0 0.0
2015-Jun-27 16:33N 46°09' W 001°13'0 0.0
2015-Jun-27 15:33N 46°09' W 001°13'0 0.0
2015-Jun-27 14:33N 46°09' W 001°13'0 0.0
2015-Jun-27 13:33N 46°09' W 001°13'0 0.0
2015-Jun-27 12:33N 46°09' W 001°13'1 0.8
2015-Jun-27 11:33N 46°09' W 001°14'10 9.6
2015-Jun-27 10:33N 46°05' W 001°27'5 5.2
2015-Jun-27 09:33N 46°05' W 001°35'0 0.2
2015-Jun-27 08:33N 46°05' W 001°34'0 0.3
2015-Jun-27 07:32N 46°05' W 001°34'9 9.5
2015-Jun-27 06:33N 46°06' W 001°21'6 6.1
2015-Jun-27 05:34N 46°09' W 001°13'0 0.0
2015-Jun-27 04:34N 46°09' W 001°13'0 0.0
2015-Jun-27 03:34N 46°09' W 001°13'0 0.0
2015-Jun-27 02:33N 46°09' W 001°13'0 0.0
2015-Jun-27 01:33N 46°09' W 001°13'0 0.0
2015-Jun-27 00:33N 46°09' W 001°13'0 0.0
2015-Jun-26 23:33N 46°09' W 001°13'2 1.7
2015-Jun-26 22:33N 46°08' W 001°15'9 9.0
2015-Jun-26 21:33N 46°07' W 001°28'1110.5
2015-Jun-26 20:33N 46°13' W 001°41'1110.7
2015-Jun-26 19:34N 46°21' W 001°51'1111.1
2015-Jun-26 18:33N 46°30' W 001°60'1110.9
2015-Jun-26 17:33N 46°39' W 002°09'1010.4
2015-Jun-26 16:33N 46°47' W 002°19'1010.4
2015-Jun-26 15:33N 46°55' W 002°29'10 9.9
2015-Jun-26 14:33N 47°04' W 002°23'2 1.7
2015-Jun-26 13:33N 47°05' W 002°21'1 0.8
2015-Jun-26 12:33N 47°06' W 002°21'10 9.8
2015-Jun-26 11:33N 47°15' W 002°14'6 6.1
2015-Jun-26 10:33N 47°18' W 002°07'0 0.0
2015-Jun-26 09:33N 47°18' W 002°07'0 0.0
2015-Jun-26 08:33N 47°18' W 002°07'0 0.0
2015-Jun-26 07:33N 47°18' W 002°07'0 0.0
2015-Jun-26 06:33N 47°18' W 002°07'0 0.0
2015-Jun-26 05:33N 47°18' W 002°07'0 0.0
2015-Jun-26 04:33N 47°18' W 002°07'0 0.0
2015-Jun-26 03:33N 47°18' W 002°07'0 0.0
2015-Jun-26 02:33N 47°18' W 002°07'0 0.0
2015-Jun-26 01:33N 47°18' W 002°07'0 0.0
2015-Jun-26 00:33N 47°18' W 002°07'0 0.0
2015-Jun-25 23:33N 47°18' W 002°07'0 0.0
2015-Jun-25 22:33N 47°18' W 002°07'0 0.0
2015-Jun-25 21:33N 47°18' W 002°07'0 0.0
2015-Jun-25 20:33N 47°18' W 002°07'0 0.0
2015-Jun-25 19:33N 47°18' W 002°07'0 0.0
2015-Jun-25 18:33N 47°18' W 002°07'0 0.0
2015-Jun-25 17:33N 47°18' W 002°07'0 0.0
2015-Jun-25 16:33N 47°18' W 002°07'0 0.0
2015-Jun-25 15:33N 47°18' W 002°07'0 0.0
2015-Jun-25 14:33N 47°18' W 002°07'0 0.0
2015-Jun-25 13:26N 47°18' W 002°07'0 0.0
2015-Jun-25 12:25N 47°18' W 002°07'0 0.0
2015-Jun-25 11:29N 47°18' W 002°07'0 0.0
2015-Jun-25 10:33N 47°18' W 002°07'0 0.0
2015-Jun-25 09:33N 47°18' W 002°07'5 4.8
2015-Jun-25 08:33N 47°15' W 002°13'1212.0
2015-Jun-25 07:33N 47°05' W 002°22'0 0.2
2015-Jun-25 06:33N 47°05' W 002°21'0 0.2
2015-Jun-25 05:33N 47°05' W 002°21'0 0.3
2015-Jun-25 04:33N 47°05' W 002°22'9 9.4
2015-Jun-25 03:33N 47°14' W 002°16'8 7.4
2015-Jun-25 02:32N 47°18' W 002°07'0 0.0
2015-Jun-25 01:32N 47°18' W 002°07'0 0.0
2015-Jun-25 00:32N 47°18' W 002°07'0 0.0
2015-Jun-24 23:33N 47°18' W 002°07'0 0.0
2015-Jun-24 22:33N 47°18' W 002°07'0 0.0
2015-Jun-24 21:32N 47°18' W 002°07'0 0.0
2015-Jun-24 20:32N 47°18' W 002°07'0 0.0
2015-Jun-24 19:32N 47°18' W 002°07'0 0.0
2015-Jun-24 18:29N 47°18' W 002°07'0 0.0
2015-Jun-24 07:32N 47°18' W 002°07'0 0.0
2015-Jun-24 06:33N 47°18' W 002°07'0 0.0
2015-Jun-24 05:33N 47°18' W 002°07'0 0.0
2015-Jun-24 04:33N 47°18' W 002°07'0 0.0
2015-Jun-24 03:33N 47°18' W 002°07'0 0.0
2015-Jun-24 02:33N 47°18' W 002°07'0 0.0
2015-Jun-24 01:33N 47°18' W 002°07'0 0.0
2015-Jun-24 00:32N 47°18' W 002°07'0 0.0
2015-Jun-23 23:31N 47°18' W 002°07'0 0.0
2015-Jun-23 22:14N 47°18' W 002°07'0 0.0
2015-Jun-23 21:16N 47°18' W 002°07'0 0.0
2015-Jun-23 20:15N 47°18' W 002°07'  

Dump ship's entire track history